sensor_id;sensor_type;location;lat;lon;timestamp;P1;durP1;ratioP1;P2;durP2;ratioP2
28022;SDS011;67403;50.104;8.758;2023-07-29T00:01:57;7.55;;;4.97;;
28022;SDS011;67403;50.104;8.758;2023-07-29T00:04:24;8.20;;;5.13;;
28022;SDS011;67403;50.104;8.758;2023-07-29T00:06:51;8.57;;;5.53;;
28022;SDS011;67403;50.104;8.758;2023-07-29T00:09:18;7.47;;;5.10;;
28022;SDS011;67403;50.104;8.758;2023-07-29T00:11:46;9.18;;;4.93;;
28022;SDS011;67403;50.104;8.758;2023-07-29T00:14:14;6.65;;;4.90;;
28022;SDS011;67403;50.104;8.758;2023-07-29T00:16:42;8.60;;;4.82;;
28022;SDS011;67403;50.104;8.758;2023-07-29T00:19:09;7.72;;;4.72;;
28022;SDS011;67403;50.104;8.758;2023-07-29T00:21:36;5.85;;;4.50;;
28022;SDS011;67403;50.104;8.758;2023-07-29T00:24:03;5.85;;;4.40;;
28022;SDS011;67403;50.104;8.758;2023-07-29T00:26:31;7.13;;;5.03;;
28022;SDS011;67403;50.104;8.758;2023-07-29T00:28:58;7.07;;;4.90;;
28022;SDS011;67403;50.104;8.758;2023-07-29T00:31:26;7.40;;;4.93;;
28022;SDS011;67403;50.104;8.758;2023-07-29T00:33:54;6.63;;;4.57;;
28022;SDS011;67403;50.104;8.758;2023-07-29T00:36:23;4.95;;;4.00;;
28022;SDS011;67403;50.104;8.758;2023-07-29T00:38:50;4.97;;;3.50;;
28022;SDS011;67403;50.104;8.758;2023-07-29T00:41:19;5.13;;;4.10;;
28022;SDS011;67403;50.104;8.758;2023-07-29T00:43:48;4.32;;;3.80;;
28022;SDS011;67403;50.104;8.758;2023-07-29T00:46:15;4.28;;;3.30;;
28022;SDS011;67403;50.104;8.758;2023-07-29T00:48:44;5.40;;;3.70;;
28022;SDS011;67403;50.104;8.758;2023-07-29T00:51:11;12.10;;;7.30;;
28022;SDS011;67403;50.104;8.758;2023-07-29T00:53:39;5.85;;;4.15;;
28022;SDS011;67403;50.104;8.758;2023-07-29T00:56:06;7.00;;;4.05;;
28022;SDS011;67403;50.104;8.758;2023-07-29T00:58:33;6.00;;;3.50;;
28022;SDS011;67403;50.104;8.758;2023-07-29T01:01:01;29.48;;;19.73;;
28022;SDS011;67403;50.104;8.758;2023-07-29T01:03:28;7.13;;;5.07;;
28022;SDS011;67403;50.104;8.758;2023-07-29T01:05:58;6.40;;;4.18;;
28022;SDS011;67403;50.104;8.758;2023-07-29T01:08:31;11.52;;;4.40;;
28022;SDS011;67403;50.104;8.758;2023-07-29T01:11:01;6.10;;;3.95;;
28022;SDS011;67403;50.104;8.758;2023-07-29T01:13:34;6.47;;;3.72;;
28022;SDS011;67403;50.104;8.758;2023-07-29T01:16:05;3.88;;;3.13;;
28022;SDS011;67403;50.104;8.758;2023-07-29T01:18:36;5.90;;;3.50;;
28022;SDS011;67403;50.104;8.758;2023-07-29T01:21:07;6.18;;;3.80;;
28022;SDS011;67403;50.104;8.758;2023-07-29T01:23:36;4.10;;;3.42;;
28022;SDS011;67403;50.104;8.758;2023-07-29T01:26:04;9.43;;;3.90;;
28022;SDS011;67403;50.104;8.758;2023-07-29T01:28:31;4.35;;;3.65;;
28022;SDS011;67403;50.104;8.758;2023-07-29T01:31:01;6.80;;;4.00;;
28022;SDS011;67403;50.104;8.758;2023-07-29T01:35:57;6.10;;;4.10;;
28022;SDS011;67403;50.104;8.758;2023-07-29T01:38:27;6.07;;;3.67;;
28022;SDS011;67403;50.104;8.758;2023-07-29T01:40:58;4.53;;;3.70;;
28022;SDS011;67403;50.104;8.758;2023-07-29T01:43:27;4.25;;;3.45;;
28022;SDS011;67403;50.104;8.758;2023-07-29T01:45:55;4.38;;;3.50;;
28022;SDS011;67403;50.104;8.758;2023-07-29T01:48:22;4.60;;;3.50;;
28022;SDS011;67403;50.104;8.758;2023-07-29T01:50:49;5.68;;;3.45;;
28022;SDS011;67403;50.104;8.758;2023-07-29T01:53:17;4.45;;;3.22;;
28022;SDS011;67403;50.104;8.758;2023-07-29T01:55:44;4.75;;;3.45;;
28022;SDS011;67403;50.104;8.758;2023-07-29T01:58:12;5.07;;;3.58;;
28022;SDS011;67403;50.104;8.758;2023-07-29T02:00:40;6.68;;;3.78;;
28022;SDS011;67403;50.104;8.758;2023-07-29T02:03:07;3.95;;;3.25;;
28022;SDS011;67403;50.104;8.758;2023-07-29T02:05:35;4.68;;;3.70;;
28022;SDS011;67403;50.104;8.758;2023-07-29T02:08:02;7.50;;;3.90;;
28022;SDS011;67403;50.104;8.758;2023-07-29T02:10:29;3.58;;;3.25;;
28022;SDS011;67403;50.104;8.758;2023-07-29T02:12:57;4.80;;;3.78;;
28022;SDS011;67403;50.104;8.758;2023-07-29T02:15:25;8.57;;;3.50;;
28022;SDS011;67403;50.104;8.758;2023-07-29T02:17:53;6.07;;;3.70;;
28022;SDS011;67403;50.104;8.758;2023-07-29T02:20:20;7.15;;;3.65;;
28022;SDS011;67403;50.104;8.758;2023-07-29T02:22:47;4.57;;;3.70;;
28022;SDS011;67403;50.104;8.758;2023-07-29T02:25:14;4.22;;;3.47;;
28022;SDS011;67403;50.104;8.758;2023-07-29T02:27:42;4.10;;;3.20;;
28022;SDS011;67403;50.104;8.758;2023-07-29T02:30:09;4.95;;;3.95;;
28022;SDS011;67403;50.104;8.758;2023-07-29T02:32:39;4.70;;;3.63;;
28022;SDS011;67403;50.104;8.758;2023-07-29T02:35:06;3.72;;;3.42;;
28022;SDS011;67403;50.104;8.758;2023-07-29T02:37:33;3.83;;;3.40;;
28022;SDS011;67403;50.104;8.758;2023-07-29T02:40:01;4.78;;;3.47;;
28022;SDS011;67403;50.104;8.758;2023-07-29T02:42:29;5.22;;;4.05;;
28022;SDS011;67403;50.104;8.758;2023-07-29T02:44:56;3.88;;;3.47;;
28022;SDS011;67403;50.104;8.758;2023-07-29T02:47:24;3.95;;;3.05;;
28022;SDS011;67403;50.104;8.758;2023-07-29T02:49:52;3.78;;;3.20;;
28022;SDS011;67403;50.104;8.758;2023-07-29T02:52:19;6.00;;;3.20;;
28022;SDS011;67403;50.104;8.758;2023-07-29T02:54:47;6.45;;;3.58;;
28022;SDS011;67403;50.104;8.758;2023-07-29T02:57:14;6.97;;;3.55;;
28022;SDS011;67403;50.104;8.758;2023-07-29T02:59:42;7.40;;;4.03;;
28022;SDS011;67403;50.104;8.758;2023-07-29T03:02:10;6.07;;;3.50;;
28022;SDS011;67403;50.104;8.758;2023-07-29T03:04:37;3.78;;;3.17;;
28022;SDS011;67403;50.104;8.758;2023-07-29T03:07:06;4.25;;;3.63;;
28022;SDS011;67403;50.104;8.758;2023-07-29T03:09:33;5.10;;;4.10;;
28022;SDS011;67403;50.104;8.758;2023-07-29T03:12:01;4.72;;;3.42;;
28022;SDS011;67403;50.104;8.758;2023-07-29T03:14:28;7.50;;;4.28;;
28022;SDS011;67403;50.104;8.758;2023-07-29T03:16:56;3.90;;;3.45;;
28022;SDS011;67403;50.104;8.758;2023-07-29T03:19:24;5.47;;;4.13;;
28022;SDS011;67403;50.104;8.758;2023-07-29T03:21:51;11.38;;;4.47;;
28022;SDS011;67403;50.104;8.758;2023-07-29T03:24:20;5.05;;;4.40;;
28022;SDS011;67403;50.104;8.758;2023-07-29T03:26:47;6.28;;;4.18;;
28022;SDS011;67403;50.104;8.758;2023-07-29T03:29:14;5.85;;;4.30;;
28022;SDS011;67403;50.104;8.758;2023-07-29T03:31:42;9.07;;;4.25;;
28022;SDS011;67403;50.104;8.758;2023-07-29T03:34:09;4.95;;;3.90;;
28022;SDS011;67403;50.104;8.758;2023-07-29T03:36:37;5.72;;;3.88;;
28022;SDS011;67403;50.104;8.758;2023-07-29T03:39:05;7.05;;;3.92;;
28022;SDS011;67403;50.104;8.758;2023-07-29T03:41:34;9.00;;;4.22;;
28022;SDS011;67403;50.104;8.758;2023-07-29T03:44:01;4.78;;;4.00;;
28022;SDS011;67403;50.104;8.758;2023-07-29T03:46:28;5.70;;;4.15;;
28022;SDS011;67403;50.104;8.758;2023-07-29T03:48:55;5.10;;;4.15;;
28022;SDS011;67403;50.104;8.758;2023-07-29T03:51:23;6.18;;;4.15;;
28022;SDS011;67403;50.104;8.758;2023-07-29T03:53:50;5.82;;;4.55;;
28022;SDS011;67403;50.104;8.758;2023-07-29T03:56:17;5.10;;;4.15;;
28022;SDS011;67403;50.104;8.758;2023-07-29T03:58:46;5.28;;;4.22;;
28022;SDS011;67403;50.104;8.758;2023-07-29T04:01:14;4.45;;;3.92;;
28022;SDS011;67403;50.104;8.758;2023-07-29T04:03:41;6.15;;;4.88;;
28022;SDS011;67403;50.104;8.758;2023-07-29T04:06:09;5.70;;;4.10;;
28022;SDS011;67403;50.104;8.758;2023-07-29T04:08:36;4.82;;;3.83;;
28022;SDS011;67403;50.104;8.758;2023-07-29T04:11:03;6.88;;;4.05;;
28022;SDS011;67403;50.104;8.758;2023-07-29T04:13:30;4.90;;;3.50;;
28022;SDS011;67403;50.104;8.758;2023-07-29T04:15:59;5.38;;;4.00;;
28022;SDS011;67403;50.104;8.758;2023-07-29T04:18:26;10.60;;;4.32;;
28022;SDS011;67403;50.104;8.758;2023-07-29T04:20:54;6.20;;;4.18;;
28022;SDS011;67403;50.104;8.758;2023-07-29T04:23:21;5.60;;;4.25;;
28022;SDS011;67403;50.104;8.758;2023-07-29T04:25:48;4.85;;;4.05;;
28022;SDS011;67403;50.104;8.758;2023-07-29T04:28:17;4.78;;;3.45;;
28022;SDS011;67403;50.104;8.758;2023-07-29T04:30:44;7.22;;;3.72;;
28022;SDS011;67403;50.104;8.758;2023-07-29T04:33:12;8.20;;;3.88;;
28022;SDS011;67403;50.104;8.758;2023-07-29T04:35:40;5.35;;;3.60;;
28022;SDS011;67403;50.104;8.758;2023-07-29T04:38:07;4.57;;;3.22;;
28022;SDS011;67403;50.104;8.758;2023-07-29T04:40:34;3.78;;;3.42;;
28022;SDS011;67403;50.104;8.758;2023-07-29T04:43:01;6.28;;;3.83;;
28022;SDS011;67403;50.104;8.758;2023-07-29T04:45:28;4.85;;;3.42;;
28022;SDS011;67403;50.104;8.758;2023-07-29T04:47:56;7.35;;;3.95;;
28022;SDS011;67403;50.104;8.758;2023-07-29T04:50:24;6.82;;;4.32;;
28022;SDS011;67403;50.104;8.758;2023-07-29T04:52:52;7.82;;;3.63;;
28022;SDS011;67403;50.104;8.758;2023-07-29T04:55:19;4.40;;;3.42;;
28022;SDS011;67403;50.104;8.758;2023-07-29T04:57:46;4.72;;;3.38;;
28022;SDS011;67403;50.104;8.758;2023-07-29T05:00:13;6.85;;;3.60;;
28022;SDS011;67403;50.104;8.758;2023-07-29T05:02:41;4.40;;;3.10;;
28022;SDS011;67403;50.104;8.758;2023-07-29T05:05:08;4.35;;;3.35;;
28022;SDS011;67403;50.104;8.758;2023-07-29T05:07:36;7.35;;;3.75;;
28022;SDS011;67403;50.104;8.758;2023-07-29T05:10:04;4.63;;;3.17;;
28022;SDS011;67403;50.104;8.758;2023-07-29T05:12:32;4.68;;;3.80;;
28022;SDS011;67403;50.104;8.758;2023-07-29T05:14:59;5.93;;;3.60;;
28022;SDS011;67403;50.104;8.758;2023-07-29T05:17:26;8.30;;;3.65;;
28022;SDS011;67403;50.104;8.758;2023-07-29T05:19:53;5.65;;;3.10;;
28022;SDS011;67403;50.104;8.758;2023-07-29T05:22:21;6.95;;;3.65;;
28022;SDS011;67403;50.104;8.758;2023-07-29T05:24:49;5.40;;;3.42;;
28022;SDS011;67403;50.104;8.758;2023-07-29T05:27:16;7.47;;;3.50;;
28022;SDS011;67403;50.104;8.758;2023-07-29T05:29:44;5.47;;;3.58;;
28022;SDS011;67403;50.104;8.758;2023-07-29T05:32:11;4.80;;;3.67;;
28022;SDS011;67403;50.104;8.758;2023-07-29T05:34:38;4.55;;;3.47;;
28022;SDS011;67403;50.104;8.758;2023-07-29T05:37:05;7.30;;;3.60;;
28022;SDS011;67403;50.104;8.758;2023-07-29T05:39:33;4.75;;;3.72;;
28022;SDS011;67403;50.104;8.758;2023-07-29T05:42:01;6.30;;;3.95;;
28022;SDS011;67403;50.104;8.758;2023-07-29T05:44:28;4.97;;;3.72;;
28022;SDS011;67403;50.104;8.758;2023-07-29T05:46:56;5.32;;;3.72;;
28022;SDS011;67403;50.104;8.758;2023-07-29T05:49:23;6.22;;;3.45;;
28022;SDS011;67403;50.104;8.758;2023-07-29T05:51:51;4.63;;;3.47;;
28022;SDS011;67403;50.104;8.758;2023-07-29T05:54:18;5.85;;;3.72;;
28022;SDS011;67403;50.104;8.758;2023-07-29T05:56:45;4.80;;;3.30;;
28022;SDS011;67403;50.104;8.758;2023-07-29T05:59:14;4.30;;;3.20;;
28022;SDS011;67403;50.104;8.758;2023-07-29T06:01:42;4.18;;;3.45;;
28022;SDS011;67403;50.104;8.758;2023-07-29T06:04:09;3.70;;;3.30;;
28022;SDS011;67403;50.104;8.758;2023-07-29T06:06:36;6.93;;;3.67;;
28022;SDS011;67403;50.104;8.758;2023-07-29T06:09:03;14.20;;;7.57;;
28022;SDS011;67403;50.104;8.758;2023-07-29T06:11:30;9.10;;;4.22;;
28022;SDS011;67403;50.104;8.758;2023-07-29T06:13:58;7.20;;;3.75;;
28022;SDS011;67403;50.104;8.758;2023-07-29T06:16:26;6.50;;;3.47;;
28022;SDS011;67403;50.104;8.758;2023-07-29T06:18:53;4.30;;;3.40;;
28022;SDS011;67403;50.104;8.758;2023-07-29T06:21:21;3.97;;;3.33;;
28022;SDS011;67403;50.104;8.758;2023-07-29T06:23:48;4.13;;;3.17;;
28022;SDS011;67403;50.104;8.758;2023-07-29T06:26:15;4.65;;;3.17;;
28022;SDS011;67403;50.104;8.758;2023-07-29T06:28:42;5.35;;;3.22;;
28022;SDS011;67403;50.104;8.758;2023-07-29T06:31:10;6.03;;;3.15;;
28022;SDS011;67403;50.104;8.758;2023-07-29T06:33:38;5.78;;;3.90;;
28022;SDS011;67403;50.104;8.758;2023-07-29T06:36:05;12.40;;;4.10;;
28022;SDS011;67403;50.104;8.758;2023-07-29T06:38:33;5.75;;;3.60;;
28022;SDS011;67403;50.104;8.758;2023-07-29T06:41:00;5.82;;;4.03;;
28022;SDS011;67403;50.104;8.758;2023-07-29T06:43:27;9.73;;;4.78;;
28022;SDS011;67403;50.104;8.758;2023-07-29T06:45:54;8.05;;;3.35;;
28022;SDS011;67403;50.104;8.758;2023-07-29T06:48:22;7.32;;;4.03;;
28022;SDS011;67403;50.104;8.758;2023-07-29T06:50:50;4.30;;;3.22;;
28022;SDS011;67403;50.104;8.758;2023-07-29T06:53:18;5.57;;;3.90;;
28022;SDS011;67403;50.104;8.758;2023-07-29T06:55:45;3.97;;;3.05;;
28022;SDS011;67403;50.104;8.758;2023-07-29T06:58:12;3.08;;;2.50;;
28022;SDS011;67403;50.104;8.758;2023-07-29T07:00:39;4.47;;;3.05;;
28022;SDS011;67403;50.104;8.758;2023-07-29T07:03:07;4.85;;;3.10;;
28022;SDS011;67403;50.104;8.758;2023-07-29T07:05:34;5.28;;;2.92;;
28022;SDS011;67403;50.104;8.758;2023-07-29T07:08:03;5.28;;;3.08;;
28022;SDS011;67403;50.104;8.758;2023-07-29T07:10:30;5.68;;;3.38;;
28022;SDS011;67403;50.104;8.758;2023-07-29T07:12:59;5.15;;;3.53;;
28022;SDS011;67403;50.104;8.758;2023-07-29T07:15:26;7.10;;;4.15;;
28022;SDS011;67403;50.104;8.758;2023-07-29T07:17:53;4.38;;;3.75;;
28022;SDS011;67403;50.104;8.758;2023-07-29T07:20:20;5.10;;;3.80;;
28022;SDS011;67403;50.104;8.758;2023-07-29T07:22:48;5.80;;;4.28;;
28022;SDS011;67403;50.104;8.758;2023-07-29T07:25:16;5.68;;;3.88;;
28022;SDS011;67403;50.104;8.758;2023-07-29T07:27:43;6.72;;;4.35;;
28022;SDS011;67403;50.104;8.758;2023-07-29T07:30:11;8.52;;;4.57;;
28022;SDS011;67403;50.104;8.758;2023-07-29T07:32:38;6.28;;;4.07;;
28022;SDS011;67403;50.104;8.758;2023-07-29T07:35:06;17.50;;;10.40;;
28022;SDS011;67403;50.104;8.758;2023-07-29T07:37:33;6.82;;;4.68;;
28022;SDS011;67403;50.104;8.758;2023-07-29T07:40:00;6.90;;;4.25;;
28022;SDS011;67403;50.104;8.758;2023-07-29T07:42:29;7.57;;;4.20;;
28022;SDS011;67403;50.104;8.758;2023-07-29T07:44:56;6.40;;;4.45;;
28022;SDS011;67403;50.104;8.758;2023-07-29T07:47:23;5.35;;;4.22;;
28022;SDS011;67403;50.104;8.758;2023-07-29T07:49:51;6.82;;;4.57;;
28022;SDS011;67403;50.104;8.758;2023-07-29T07:52:18;7.72;;;5.10;;
28022;SDS011;67403;50.104;8.758;2023-07-29T07:54:45;6.68;;;5.25;;
28022;SDS011;67403;50.104;8.758;2023-07-29T07:57:12;6.28;;;5.20;;
28022;SDS011;67403;50.104;8.758;2023-07-29T07:59:41;7.32;;;5.70;;
28022;SDS011;67403;50.104;8.758;2023-07-29T08:02:08;8.00;;;5.20;;
28022;SDS011;67403;50.104;8.758;2023-07-29T08:04:36;10.38;;;5.70;;
28022;SDS011;67403;50.104;8.758;2023-07-29T08:07:03;6.00;;;5.25;;
28022;SDS011;67403;50.104;8.758;2023-07-29T08:09:31;5.78;;;5.22;;
28022;SDS011;67403;50.104;8.758;2023-07-29T08:11:58;9.60;;;5.10;;
28022;SDS011;67403;50.104;8.758;2023-07-29T08:14:25;6.13;;;5.03;;
28022;SDS011;67403;50.104;8.758;2023-07-29T08:16:54;7.88;;;4.57;;
28022;SDS011;67403;50.104;8.758;2023-07-29T08:19:21;5.80;;;4.05;;
28022;SDS011;67403;50.104;8.758;2023-07-29T08:21:48;7.90;;;4.70;;
28022;SDS011;67403;50.104;8.758;2023-07-29T08:24:15;6.85;;;4.63;;
28022;SDS011;67403;50.104;8.758;2023-07-29T08:26:42;5.38;;;4.63;;
28022;SDS011;67403;50.104;8.758;2023-07-29T08:29:10;6.13;;;4.20;;
28022;SDS011;67403;50.104;8.758;2023-07-29T08:31:38;4.75;;;3.80;;
28022;SDS011;67403;50.104;8.758;2023-07-29T08:34:07;4.55;;;3.40;;
28022;SDS011;67403;50.104;8.758;2023-07-29T08:36:34;5.35;;;3.67;;
28022;SDS011;67403;50.104;8.758;2023-07-29T08:39:01;4.32;;;2.85;;
28022;SDS011;67403;50.104;8.758;2023-07-29T08:41:29;5.90;;;3.65;;
28022;SDS011;67403;50.104;8.758;2023-07-29T08:43:59;3.58;;;2.70;;
28022;SDS011;67403;50.104;8.758;2023-07-29T08:46:28;4.10;;;3.15;;
28022;SDS011;67403;50.104;8.758;2023-07-29T08:48:55;5.30;;;3.45;;
28022;SDS011;67403;50.104;8.758;2023-07-29T08:51:26;5.22;;;2.75;;
28022;SDS011;67403;50.104;8.758;2023-07-29T08:56:21;3.38;;;2.53;;
28022;SDS011;67403;50.104;8.758;2023-07-29T08:58:48;2.80;;;2.25;;
28022;SDS011;67403;50.104;8.758;2023-07-29T09:01:15;3.13;;;2.45;;
28022;SDS011;67403;50.104;8.758;2023-07-29T09:03:43;6.88;;;2.60;;
28022;SDS011;67403;50.104;8.758;2023-07-29T09:06:10;2.80;;;2.40;;
28022;SDS011;67403;50.104;8.758;2023-07-29T09:08:39;3.30;;;2.80;;
28022;SDS011;67403;50.104;8.758;2023-07-29T09:11:06;2.92;;;2.63;;
28022;SDS011;67403;50.104;8.758;2023-07-29T09:13:34;4.82;;;2.60;;
28022;SDS011;67403;50.104;8.758;2023-07-29T09:16:02;3.58;;;2.22;;
28022;SDS011;67403;50.104;8.758;2023-07-29T09:18:30;3.92;;;2.10;;
28022;SDS011;67403;50.104;8.758;2023-07-29T09:20:58;3.40;;;2.20;;
28022;SDS011;67403;50.104;8.758;2023-07-29T09:23:26;3.15;;;2.40;;
28022;SDS011;67403;50.104;8.758;2023-07-29T09:26:01;2.60;;;2.20;;
28022;SDS011;67403;50.104;8.758;2023-07-29T09:28:31;2.30;;;1.90;;
28022;SDS011;67403;50.104;8.758;2023-07-29T09:30:59;2.10;;;1.90;;
28022;SDS011;67403;50.104;8.758;2023-07-29T09:33:27;1.80;;;1.30;;
28022;SDS011;67403;50.104;8.758;2023-07-29T09:35:54;2.35;;;1.60;;
28022;SDS011;67403;50.104;8.758;2023-07-29T09:38:25;4.72;;;1.95;;
28022;SDS011;67403;50.104;8.758;2023-07-29T09:40:54;2.25;;;1.85;;
28022;SDS011;67403;50.104;8.758;2023-07-29T09:43:26;3.35;;;1.75;;
28022;SDS011;67403;50.104;8.758;2023-07-29T09:45:55;2.50;;;1.67;;
28022;SDS011;67403;50.104;8.758;2023-07-29T09:48:27;2.60;;;1.65;;
28022;SDS011;67403;50.104;8.758;2023-07-29T09:50:55;3.30;;;1.33;;
28022;SDS011;67403;50.104;8.758;2023-07-29T09:53:22;4.38;;;1.55;;
28022;SDS011;67403;50.104;8.758;2023-07-29T09:55:49;2.50;;;1.75;;
28022;SDS011;67403;50.104;8.758;2023-07-29T09:58:19;1.77;;;1.48;;
28022;SDS011;67403;50.104;8.758;2023-07-29T10:00:48;1.95;;;1.40;;
28022;SDS011;67403;50.104;8.758;2023-07-29T10:03:15;1.33;;;1.23;;
28022;SDS011;67403;50.104;8.758;2023-07-29T10:05:42;3.72;;;1.38;;
28022;SDS011;67403;50.104;8.758;2023-07-29T10:08:09;5.05;;;1.52;;
28022;SDS011;67403;50.104;8.758;2023-07-29T10:10:38;1.85;;;1.42;;
28022;SDS011;67403;50.104;8.758;2023-07-29T10:13:05;3.88;;;1.30;;
28022;SDS011;67403;50.104;8.758;2023-07-29T10:15:33;1.13;;;1.02;;
28022;SDS011;67403;50.104;8.758;2023-07-29T10:18:02;3.15;;;1.40;;
28022;SDS011;67403;50.104;8.758;2023-07-29T10:20:30;2.10;;;1.67;;
28022;SDS011;67403;50.104;8.758;2023-07-29T10:22:59;2.97;;;1.95;;
28022;SDS011;67403;50.104;8.758;2023-07-29T10:25:30;1.43;;;1.30;;
28022;SDS011;67403;50.104;8.758;2023-07-29T10:28:03;1.92;;;1.40;;
28022;SDS011;67403;50.104;8.758;2023-07-29T10:30:31;1.55;;;1.42;;
28022;SDS011;67403;50.104;8.758;2023-07-29T10:32:59;1.67;;;1.58;;
28022;SDS011;67403;50.104;8.758;2023-07-29T10:35:29;3.90;;;1.40;;
28022;SDS011;67403;50.104;8.758;2023-07-29T10:37:57;1.85;;;1.50;;
28022;SDS011;67403;50.104;8.758;2023-07-29T10:40:24;1.63;;;1.42;;
28022;SDS011;67403;50.104;8.758;2023-07-29T10:43:01;1.80;;;1.10;;
28022;SDS011;67403;50.104;8.758;2023-07-29T10:45:36;2.22;;;1.40;;
28022;SDS011;67403;50.104;8.758;2023-07-29T10:48:05;1.75;;;1.40;;
28022;SDS011;67403;50.104;8.758;2023-07-29T10:50:35;2.22;;;1.80;;
28022;SDS011;67403;50.104;8.758;2023-07-29T10:53:02;3.87;;;1.37;;
28022;SDS011;67403;50.104;8.758;2023-07-29T10:55:30;1.83;;;1.17;;
28022;SDS011;67403;50.104;8.758;2023-07-29T10:58:05;4.80;;;1.45;;
28022;SDS011;67403;50.104;8.758;2023-07-29T11:00:32;1.60;;;1.50;;
28022;SDS011;67403;50.104;8.758;2023-07-29T11:03:01;1.73;;;1.42;;
28022;SDS011;67403;50.104;8.758;2023-07-29T11:05:42;7.20;;;2.20;;
28022;SDS011;67403;50.104;8.758;2023-07-29T11:08:17;1.23;;;1.13;;
28022;SDS011;67403;50.104;8.758;2023-07-29T11:10:44;1.73;;;1.38;;
28022;SDS011;67403;50.104;8.758;2023-07-29T11:13:25;1.77;;;1.30;;
28022;SDS011;67403;50.104;8.758;2023-07-29T11:15:53;3.08;;;1.45;;
28022;SDS011;67403;50.104;8.758;2023-07-29T11:18:21;1.80;;;1.50;;
28022;SDS011;67403;50.104;8.758;2023-07-29T11:20:50;1.77;;;1.40;;
28022;SDS011;67403;50.104;8.758;2023-07-29T11:23:17;2.17;;;1.73;;
28022;SDS011;67403;50.104;8.758;2023-07-29T11:25:45;4.25;;;1.63;;
28022;SDS011;67403;50.104;8.758;2023-07-29T11:28:12;1.65;;;1.40;;
28022;SDS011;67403;50.104;8.758;2023-07-29T11:30:39;3.13;;;1.80;;
28022;SDS011;67403;50.104;8.758;2023-07-29T11:33:06;2.03;;;1.60;;
28022;SDS011;67403;50.104;8.758;2023-07-29T11:35:34;4.20;;;1.80;;
28022;SDS011;67403;50.104;8.758;2023-07-29T11:38:02;3.60;;;2.92;;
28022;SDS011;67403;50.104;8.758;2023-07-29T11:40:29;2.13;;;1.70;;
28022;SDS011;67403;50.104;8.758;2023-07-29T11:42:57;1.73;;;1.35;;
28022;SDS011;67403;50.104;8.758;2023-07-29T11:45:24;1.83;;;1.60;;
28022;SDS011;67403;50.104;8.758;2023-07-29T11:47:51;4.47;;;1.80;;
28022;SDS011;67403;50.104;8.758;2023-07-29T11:50:19;1.70;;;1.50;;
28022;SDS011;67403;50.104;8.758;2023-07-29T11:52:46;2.45;;;1.85;;
28022;SDS011;67403;50.104;8.758;2023-07-29T11:55:15;2.20;;;2.00;;
28022;SDS011;67403;50.104;8.758;2023-07-29T11:57:44;2.95;;;1.15;;
28022;SDS011;67403;50.104;8.758;2023-07-29T12:00:11;1.75;;;1.50;;
28022;SDS011;67403;50.104;8.758;2023-07-29T12:02:40;6.15;;;1.70;;
28022;SDS011;67403;50.104;8.758;2023-07-29T12:05:09;1.52;;;1.42;;
28022;SDS011;67403;50.104;8.758;2023-07-29T12:07:37;3.20;;;1.55;;
28022;SDS011;67403;50.104;8.758;2023-07-29T12:10:05;2.05;;;1.48;;
28022;SDS011;67403;50.104;8.758;2023-07-29T12:12:35;3.00;;;1.25;;
28022;SDS011;67403;50.104;8.758;2023-07-29T12:15:04;4.47;;;1.45;;
28022;SDS011;67403;50.104;8.758;2023-07-29T12:17:32;1.35;;;1.20;;
28022;SDS011;67403;50.104;8.758;2023-07-29T12:20:07;2.15;;;1.50;;
28022;SDS011;67403;50.104;8.758;2023-07-29T12:22:34;1.30;;;1.20;;
28022;SDS011;67403;50.104;8.758;2023-07-29T12:25:02;3.13;;;1.45;;
28022;SDS011;67403;50.104;8.758;2023-07-29T12:27:29;2.55;;;1.63;;
28022;SDS011;67403;50.104;8.758;2023-07-29T12:30:00;1.70;;;1.60;;
28022;SDS011;67403;50.104;8.758;2023-07-29T12:32:29;1.60;;;1.50;;
28022;SDS011;67403;50.104;8.758;2023-07-29T12:34:56;1.70;;;1.33;;
28022;SDS011;67403;50.104;8.758;2023-07-29T12:37:30;3.85;;;1.38;;
28022;SDS011;67403;50.104;8.758;2023-07-29T12:39:58;2.00;;;1.75;;
28022;SDS011;67403;50.104;8.758;2023-07-29T12:42:25;1.67;;;1.58;;
28022;SDS011;67403;50.104;8.758;2023-07-29T12:44:53;1.08;;;1.08;;
28022;SDS011;67403;50.104;8.758;2023-07-29T12:47:21;1.70;;;1.50;;
28022;SDS011;67403;50.104;8.758;2023-07-29T12:49:48;3.72;;;1.50;;
28022;SDS011;67403;50.104;8.758;2023-07-29T12:52:16;5.38;;;1.67;;
28022;SDS011;67403;50.104;8.758;2023-07-29T12:54:43;4.28;;;2.15;;
28022;SDS011;67403;50.104;8.758;2023-07-29T12:57:10;1.88;;;1.50;;
28022;SDS011;67403;50.104;8.758;2023-07-29T12:59:37;3.30;;;1.80;;
28022;SDS011;67403;50.104;8.758;2023-07-29T13:02:05;2.28;;;2.00;;
28022;SDS011;67403;50.104;8.758;2023-07-29T13:04:33;2.47;;;1.38;;
28022;SDS011;67403;50.104;8.758;2023-07-29T13:07:00;1.85;;;1.73;;
28022;SDS011;67403;50.104;8.758;2023-07-29T13:09:28;2.25;;;2.00;;
28022;SDS011;67403;50.104;8.758;2023-07-29T13:11:55;2.40;;;1.73;;
28022;SDS011;67403;50.104;8.758;2023-07-29T13:14:22;2.25;;;1.77;;
28022;SDS011;67403;50.104;8.758;2023-07-29T13:16:51;2.50;;;1.67;;
28022;SDS011;67403;50.104;8.758;2023-07-29T13:19:18;2.72;;;1.90;;
28022;SDS011;67403;50.104;8.758;2023-07-29T13:21:47;1.90;;;1.70;;
28022;SDS011;67403;50.104;8.758;2023-07-29T13:24:14;2.35;;;1.83;;
28022;SDS011;67403;50.104;8.758;2023-07-29T13:26:41;2.53;;;1.70;;
28022;SDS011;67403;50.104;8.758;2023-07-29T13:29:08;2.35;;;1.85;;
28022;SDS011;67403;50.104;8.758;2023-07-29T13:31:36;2.03;;;1.67;;
28022;SDS011;67403;50.104;8.758;2023-07-29T13:34:03;1.65;;;1.40;;
28022;SDS011;67403;50.104;8.758;2023-07-29T13:36:30;2.75;;;1.75;;
28022;SDS011;67403;50.104;8.758;2023-07-29T13:38:59;2.13;;;1.80;;
28022;SDS011;67403;50.104;8.758;2023-07-29T13:41:26;2.70;;;1.35;;
28022;SDS011;67403;50.104;8.758;2023-07-29T13:43:53;2.20;;;1.73;;
28022;SDS011;67403;50.104;8.758;2023-07-29T13:46:20;1.80;;;1.50;;
28022;SDS011;67403;50.104;8.758;2023-07-29T13:48:47;2.70;;;1.42;;
28022;SDS011;67403;50.104;8.758;2023-07-29T13:51:14;2.53;;;1.50;;
28022;SDS011;67403;50.104;8.758;2023-07-29T13:53:41;1.95;;;1.40;;
28022;SDS011;67403;50.104;8.758;2023-07-29T13:56:10;2.22;;;1.50;;
28022;SDS011;67403;50.104;8.758;2023-07-29T13:58:37;2.83;;;2.00;;
28022;SDS011;67403;50.104;8.758;2023-07-29T14:01:04;1.92;;;1.73;;
28022;SDS011;67403;50.104;8.758;2023-07-29T14:03:32;4.70;;;1.40;;
28022;SDS011;67403;50.104;8.758;2023-07-29T14:05:59;1.83;;;1.60;;
28022;SDS011;67403;50.104;8.758;2023-07-29T14:08:26;2.85;;;1.60;;
28022;SDS011;67403;50.104;8.758;2023-07-29T14:10:53;5.80;;;1.38;;
28022;SDS011;67403;50.104;8.758;2023-07-29T14:13:22;1.85;;;1.20;;
28022;SDS011;67403;50.104;8.758;2023-07-29T14:15:49;1.45;;;1.33;;
28022;SDS011;67403;50.104;8.758;2023-07-29T14:18:16;1.33;;;1.23;;
28022;SDS011;67403;50.104;8.758;2023-07-29T14:20:43;2.55;;;1.52;;
28022;SDS011;67403;50.104;8.758;2023-07-29T14:23:11;1.45;;;1.33;;
28022;SDS011;67403;50.104;8.758;2023-07-29T14:25:38;1.50;;;1.40;;
28022;SDS011;67403;50.104;8.758;2023-07-29T14:28:05;2.55;;;1.45;;
28022;SDS011;67403;50.104;8.758;2023-07-29T14:30:34;2.67;;;2.42;;
28022;SDS011;67403;50.104;8.758;2023-07-29T14:33:03;1.48;;;1.38;;
28022;SDS011;67403;50.104;8.758;2023-07-29T14:35:30;1.52;;;1.42;;
28022;SDS011;67403;50.104;8.758;2023-07-29T14:37:57;1.90;;;1.48;;
28022;SDS011;67403;50.104;8.758;2023-07-29T14:40:24;1.52;;;1.42;;
28022;SDS011;67403;50.104;8.758;2023-07-29T14:42:52;1.83;;;1.60;;
28022;SDS011;67403;50.104;8.758;2023-07-29T14:45:19;1.98;;;1.60;;
28022;SDS011;67403;50.104;8.758;2023-07-29T14:47:48;1.88;;;1.60;;
28022;SDS011;67403;50.104;8.758;2023-07-29T14:50:15;2.37;;;1.63;;
28022;SDS011;67403;50.104;8.758;2023-07-29T14:52:42;2.28;;;1.48;;
28022;SDS011;67403;50.104;8.758;2023-07-29T14:55:09;1.60;;;1.50;;
28022;SDS011;67403;50.104;8.758;2023-07-29T14:57:37;1.98;;;1.23;;